createdAt,value
2023-03-01T00:00:38.541Z,99266.06
2023-03-01T00:03:26.453Z,99262.63
2023-03-01T00:06:14.862Z,99267.94
2023-03-01T00:09:02.907Z,99263.69
2023-03-01T00:11:52.378Z,99264.56
2023-03-01T00:14:40.454Z,99272.47
2023-03-01T00:17:29.645Z,99275.19
2023-03-01T00:20:17.669Z,99267.44
2023-03-01T00:23:05.716Z,99262.31
2023-03-01T00:25:54.276Z,99265.06
2023-03-01T00:28:44.019Z,99261.75
2023-03-01T00:31:33.507Z,99258.38
2023-03-01T00:34:21.235Z,99255.97
2023-03-01T00:37:09.014Z,99257.09
2023-03-01T00:39:56.895Z,99251.22
2023-03-01T00:42:44.677Z,99257.38
2023-03-01T00:45:35.219Z,99253.16
2023-03-01T00:48:22.930Z,99259.38
2023-03-01T00:51:12.911Z,99262.13
2023-03-01T00:54:04.638Z,99266.50
2023-03-01T00:56:52.443Z,99251.00
2023-03-01T00:59:40.314Z,99245.88
2023-03-01T01:02:29.570Z,99242.50
2023-03-01T01:05:21.875Z,99240.06
2023-03-01T01:08:09.589Z,99240.94
2023-03-01T01:10:57.565Z,99232.25
2023-03-01T01:13:47.604Z,99227.94
2023-03-01T01:16:35.554Z,99229.75
2023-03-01T01:19:25.239Z,99227.25
2023-03-01T01:22:12.971Z,99218.78
2023-03-01T01:25:01.033Z,99218.88
2023-03-01T01:27:48.630Z,99210.34
2023-03-01T01:30:36.509Z,99217.28
2023-03-01T01:33:24.562Z,99204.34
2023-03-01T01:36:14.350Z,99207.06
2023-03-01T01:39:03.099Z,99199.38
2023-03-01T01:41:51.156Z,99199.47
2023-03-01T01:44:39.063Z,99195.22
2023-03-01T01:47:27.374Z,99189.31
2023-03-01T01:50:21.423Z,99192.81
2023-03-01T01:53:17.068Z,99191.22
2023-03-01T01:56:08.386Z,99199.03
2023-03-01T01:58:57.190Z,99190.53
2023-03-01T02:01:45.999Z,99182.84
2023-03-01T02:04:34.467Z,99179.53
2023-03-01T02:07:26.609Z,99176.19
2023-03-01T02:10:16.347Z,99176.28
2023-03-01T02:13:04.966Z,99174.66
2023-03-01T02:15:53.029Z,99172.22
2023-03-01T02:18:41.975Z,99170.41
2023-03-01T02:21:41.144Z,99161.00
2023-03-01T02:24:37.509Z,99159.38
2023-03-01T02:27:35.222Z,99162.97
2023-03-01T02:30:26.630Z,99162.09
2023-03-01T02:33:13.701Z,99158.69
2023-03-01T02:36:03.445Z,99150.88
2023-03-01T02:38:55.494Z,99149.13
2023-03-01T02:41:47.910Z,99148.03
2023-03-01T02:44:35.949Z,99142.03
2023-03-01T02:47:25.399Z,99146.63
2023-03-01T02:50:25.483Z,99144.22
2023-03-01T02:53:24.057Z,99152.16
2023-03-01T02:56:13.894Z,99146.22
2023-03-01T02:59:03.452Z,99140.22
2023-03-01T03:01:51.233Z,99144.50
2023-03-01T03:04:40.505Z,99144.56
2023-03-01T03:07:28.304Z,99135.19
2023-03-01T03:10:22.111Z,99133.47
2023-03-01T03:13:12.821Z,99134.28
2023-03-01T03:16:01.041Z,99132.53
2023-03-01T03:18:49.342Z,99128.38
2023-03-01T03:21:38.773Z,99125.84
2023-03-01T03:24:27.177Z,99124.16
2023-03-01T03:27:14.722Z,99121.56
2023-03-01T03:30:02.800Z,99116.47
2023-03-01T03:32:54.053Z,99119.97
2023-03-01T03:35:45.089Z,99126.06
2023-03-01T03:38:34.545Z,99125.22
2023-03-01T03:41:22.370Z,99122.63
2023-03-01T03:44:10.244Z,99120.94
2023-03-01T03:46:58.170Z,99116.66
2023-03-01T03:49:45.934Z,99121.03
2023-03-01T03:52:33.896Z,99112.34
2023-03-01T03:55:23.176Z,99111.56
2023-03-01T03:58:12.391Z,99112.44
2023-03-01T04:01:01.719Z,99111.75
2023-03-01T04:03:49.681Z,99115.19
2023-03-01T04:06:37.697Z,99117.00
2023-03-01T04:09:25.438Z,99115.97
2023-03-01T04:12:14.735Z,99109.66
2023-03-01T04:15:02.751Z,99114.06
2023-03-01T04:17:50.578Z,99118.44
2023-03-01T04:20:39.094Z,99121.09
2023-03-01T04:23:26.955Z,99117.63
2023-03-01T04:26:15.059Z,99126.31
2023-03-01T04:29:04.361Z,99124.53
2023-03-01T04:31:52.367Z,99122.78
2023-03-01T04:34:40.389Z,99135.78
2023-03-01T04:37:28.505Z,99125.50
2023-03-01T04:40:18.126Z,99122.03
2023-03-01T04:43:06.820Z,99125.50
2023-03-01T04:45:55.826Z,99123.88
2023-03-01T04:48:45.341Z,99127.31
2023-03-01T04:51:33.966Z,99124.50
2023-03-01T04:54:21.974Z,99127.16
2023-03-01T04:57:09.923Z,99122.03
2023-03-01T04:59:58.054Z,99122.13
2023-03-01T05:02:47.859Z,99122.03
2023-03-01T05:05:37.206Z,99125.41
2023-03-01T05:08:25.091Z,99127.22
2023-03-01T05:11:14.090Z,99127.13
2023-03-01T05:14:02.146Z,99127.88
2023-03-01T05:16:50.082Z,99127.03
2023-03-01T05:19:39.428Z,99129.00
2023-03-01T05:22:27.216Z,99124.66
2023-03-01T05:25:16.922Z,99121.03
2023-03-01T05:28:05.968Z,99122.03
2023-03-01T05:30:53.946Z,99111.75
2023-03-01T05:33:42.981Z,99115.19
2023-03-01T05:36:32.556Z,99114.41
2023-03-01T05:39:20.480Z,99111.91
2023-03-01T05:42:09.640Z,99113.72
2023-03-01T05:44:58.070Z,99115.50
2023-03-01T05:47:48.210Z,99110.34
2023-03-01T05:50:37.843Z,99101.78
2023-03-01T05:53:28.324Z,99105.34
2023-03-01T05:56:16.047Z,99108.78
2023-03-01T05:59:05.909Z,99103.66
2023-03-01T06:01:54.549Z,99102.88
2023-03-01T06:04:42.967Z,99102.03
2023-03-01T06:07:31.189Z,99104.69
2023-03-01T06:10:22.040Z,99106.44
2023-03-01T06:13:10.186Z,99102.13
2023-03-01T06:15:58.317Z,99098.75
2023-03-01T06:18:46.292Z,99100.34
2023-03-01T06:21:34.233Z,99095.19
2023-03-01T06:24:22.068Z,99104.63
2023-03-01T06:27:11.305Z,99099.47
2023-03-01T06:29:59.173Z,99096.91
2023-03-01T06:32:47.282Z,99097.75
2023-03-01T06:35:35.626Z,99096.78
2023-03-01T06:38:23.594Z,99090.66
2023-03-01T06:41:11.653Z,99090.47
2023-03-01T06:44:01.275Z,99100.50
2023-03-01T06:46:49.470Z,99091.94
2023-03-01T06:49:37.465Z,99087.50
2023-03-01T06:52:25.323Z,99092.50
2023-03-01T06:55:13.293Z,99093.78
2023-03-01T06:58:02.613Z,99093.66
2023-03-01T07:00:51.599Z,99089.84
2023-03-01T07:03:39.251Z,99095.84
2023-03-01T07:06:29.300Z,99090.66
2023-03-01T07:09:20.706Z,99087.91
2023-03-01T07:12:34.529Z,99075.63
2023-03-01T07:15:23.399Z,99081.53
2023-03-01T07:18:12.749Z,99074.97
2023-03-01T07:21:07.146Z,99080.16
2023-03-01T07:23:54.850Z,99073.53
2023-03-01T07:26:42.950Z,99082.50
2023-03-01T07:29:30.763Z,99078.78
2023-03-01T07:32:18.604Z,99086.06
2023-03-01T07:35:08.742Z,99083.88
2023-03-01T07:37:56.479Z,99078.78
2023-03-01T07:40:44.403Z,99079.97
2023-03-01T07:43:32.862Z,99072.66
2023-03-01T07:46:22.563Z,99065.38
2023-03-01T07:49:10.683Z,99062.50
2023-03-01T07:52:01.325Z,99057.72
2023-03-01T07:54:49.247Z,99055.75
2023-03-01T07:57:37.091Z,99050.88
2023-03-01T08:00:25.384Z,99048.06
2023-03-01T08:06:03.608Z,99049.63
2023-03-01T08:08:52.876Z,99043.59
2023-03-01T08:11:41.887Z,99046.81
2023-03-01T08:14:29.604Z,99039.75
2023-03-01T08:17:17.735Z,99044.00
2023-03-01T08:20:07.893Z,99043.50
2023-03-01T08:22:57.140Z,99028.22
2023-03-01T08:25:46.240Z,99036.75
2023-03-01T08:28:36.081Z,99030.09
2023-03-01T08:31:26.048Z,99021.78
2023-03-01T08:34:16.747Z,99013.97
2023-03-01T08:37:04.743Z,99009.69
2023-03-01T08:39:52.898Z,99004.78
2023-03-01T08:42:43.603Z,99001.28
2023-03-01T08:45:32.259Z,98998.25
2023-03-01T08:48:20.250Z,98995.06
2023-03-01T08:51:12.462Z,98982.66
2023-03-01T08:54:00.193Z,98976.84
2023-03-01T08:56:48.407Z,98970.94
2023-03-01T08:59:38.314Z,98967.00
2023-03-01T09:02:26.438Z,98969.22
2023-03-01T09:05:14.468Z,98964.81
2023-03-01T09:08:02.554Z,98963.81
2023-03-01T09:10:50.552Z,98954.84
2023-03-01T09:13:39.269Z,98954.56
2023-03-01T09:16:31.280Z,98955.09
2023-03-01T09:19:19.262Z,98946.69
2023-03-01T09:22:07.335Z,98948.78
2023-03-01T09:24:55.518Z,98947.34
2023-03-01T09:27:43.692Z,98947.91
2023-03-01T09:30:32.321Z,98947.41
2023-03-01T09:33:21.722Z,98944.31
2023-03-01T09:36:13.002Z,98931.19
2023-03-01T09:39:01.190Z,98933.66
2023-03-01T09:41:56.686Z,98926.91
2023-03-01T09:44:50.220Z,98925.78
2023-03-01T09:47:41.475Z,98929.47
2023-03-01T09:50:35.427Z,98934.09
2023-03-01T09:53:29.192Z,98925.78
2023-03-01T09:56:23.362Z,98924.03
2023-03-01T09:59:25.352Z,98918.78
2023-03-01T10:02:28.627Z,98915.66
2023-03-01T10:05:37.992Z,98908.28
2023-03-01T10:08:53.063Z,98907.50
2023-03-01T10:11:46.005Z,98904.44
2023-03-01T10:14:39.059Z,98885.78
2023-03-01T10:17:37.304Z,98888.22
2023-03-01T10:20:26.941Z,98889.34
2023-03-01T10:23:16.075Z,98881.72
2023-03-01T10:26:21.694Z,98870.91
2023-03-01T10:29:11.716Z,98862.44
2023-03-01T10:31:59.693Z,98862.06
2023-03-01T10:34:47.913Z,98863.91
2023-03-01T10:37:35.721Z,98854.38
2023-03-01T10:40:24.700Z,98856.56
2023-03-01T10:43:14.881Z,98852.88
2023-03-01T10:46:02.920Z,98851.91
2023-03-01T10:49:09.964Z,98854.44
2023-03-01T10:51:58.067Z,98850.28
2023-03-01T10:54:55.625Z,98842.13
2023-03-01T10:57:44.835Z,98840.66
2023-03-01T11:00:33.822Z,98835.72
2023-03-01T11:03:25.338Z,98829.03
2023-03-01T11:06:24.448Z,98813.22
2023-03-01T11:09:20.951Z,98806.97
2023-03-01T11:12:17.066Z,98801.34
2023-03-01T11:15:07.476Z,98793.06
2023-03-01T11:18:05.717Z,98789.91
2023-03-01T11:21:03.942Z,98772.94
2023-03-01T11:23:51.676Z,98766.34
2023-03-01T11:26:42.475Z,98758.16
2023-03-01T11:29:43.233Z,98747.31
2023-03-01T11:32:42.948Z,98756.59
2023-03-01T11:35:34.201Z,98745.88
2023-03-01T11:38:26.714Z,98752.97
2023-03-01T11:41:18.989Z,98742.00
2023-03-01T11:44:14.941Z,98739.50
2023-03-01T11:47:30.372Z,98739.31
2023-03-01T11:50:27.972Z,98729.13
2023-03-01T11:53:36.409Z,98729.03
2023-03-01T11:56:33.897Z,98722.03
2023-03-01T11:59:47.333Z,98713.09
2023-03-01T12:02:53.999Z,98696.09
2023-03-01T12:06:16.561Z,98692.22
2023-03-01T12:09:23.050Z,98692.06
2023-03-01T12:12:37.315Z,98683.38
2023-03-01T12:15:43.630Z,98681.53
2023-03-01T12:18:52.036Z,98676.84
2023-03-01T12:22:03.098Z,98660.97
2023-03-01T12:25:21.503Z,98662.84
2023-03-01T12:28:35.038Z,98658.59
2023-03-01T12:31:59.919Z,98655.38
2023-03-01T12:35:07.124Z,98650.41
2023-03-01T12:38:07.975Z,98645.56
2023-03-01T12:41:18.604Z,98637.66
2023-03-01T12:44:22.271Z,98632.66
2023-03-01T12:47:25.340Z,98631.28
2023-03-01T12:50:16.292Z,98629.09
2023-03-01T12:53:05.412Z,98620.72
2023-03-01T12:55:56.658Z,98617.75
2023-03-01T12:58:58.581Z,98613.09
2023-03-01T13:01:56.630Z,98607.25
2023-03-01T13:05:04.951Z,98611.84
2023-03-01T13:08:02.076Z,98612.38
2023-03-01T13:10:54.897Z,98611.00
2023-03-01T13:13:42.441Z,98612.66
2023-03-01T13:16:46.040Z,98610.31
2023-03-01T13:19:36.813Z,98605.25
2023-03-01T13:22:32.400Z,98602.00
2023-03-01T13:25:23.129Z,98608.91
2023-03-01T13:28:48.527Z,98602.22
2023-03-01T13:32:04.911Z,98603.72
2023-03-01T13:34:55.793Z,98593.28
2023-03-01T13:37:45.334Z,98601.31
2023-03-01T13:41:01.204Z,98595.78
2023-03-01T13:43:50.938Z,98593.56
2023-03-01T13:46:38.759Z,98585.31
2023-03-01T13:49:44.343Z,98584.75
2023-03-01T13:52:41.805Z,98577.75
2023-03-01T13:55:42.893Z,98581.81
2023-03-01T13:58:33.400Z,98574.66
2023-03-01T14:01:30.660Z,98571.16
2023-03-01T14:04:26.623Z,98572.50
2023-03-01T14:07:20.058Z,98564.06
2023-03-01T14:10:09.490Z,98563.34
2023-03-01T14:13:16.120Z,98566.91
2023-03-01T14:16:22.451Z,98566.25
2023-03-01T14:19:32.645Z,98568.13
2023-03-01T14:22:25.006Z,98572.53
2023-03-01T14:25:26.632Z,98561.66
2023-03-01T14:28:19.699Z,98571.84
2023-03-01T14:31:47.043Z,98561.28
2023-03-01T14:34:48.588Z,98565.06
2023-03-01T14:37:37.442Z,98569.31
2023-03-01T14:40:28.258Z,98572.56
2023-03-01T14:43:23.640Z,98569.03
2023-03-01T14:46:23.429Z,98570.59
2023-03-01T14:49:15.981Z,98574.13
2023-03-01T14:52:09.068Z,98570.41
2023-03-01T14:54:59.656Z,98575.84
2023-03-01T14:57:51.770Z,98572.34
2023-03-01T15:00:50.232Z,98570.03
2023-03-01T15:03:42.294Z,98570.53
2023-03-01T15:06:31.109Z,98573.50
2023-03-01T15:09:21.153Z,98577.16
2023-03-01T15:12:41.438Z,98575.38
2023-03-01T15:15:49.034Z,98574.81
2023-03-01T15:18:38.252Z,98566.41
2023-03-01T15:21:29.598Z,98556.78
2023-03-01T15:24:25.492Z,98557.75
2023-03-01T15:27:19.608Z,98568.75
2023-03-01T15:30:08.690Z,98564.13
2023-03-01T15:33:23.258Z,98576.25
2023-03-01T15:36:36.093Z,98569.75
2023-03-01T15:39:38.239Z,98569.63
2023-03-01T15:42:40.538Z,98566.06
2023-03-01T15:45:30.673Z,98579.69
2023-03-01T15:48:21.992Z,98580.00
2023-03-01T15:51:16.262Z,98580.75
2023-03-01T15:54:09.320Z,98579.84
2023-03-01T15:56:59.509Z,98575.56
2023-03-01T15:59:50.469Z,98573.88
2023-03-01T16:02:40.429Z,98583.84
2023-03-01T16:05:32.010Z,98574.78
2023-03-01T16:08:20.928Z,98577.16
2023-03-01T16:11:16.388Z,98575.03
2023-03-01T16:14:05.601Z,98572.09
2023-03-01T16:16:53.781Z,98572.72
2023-03-01T16:19:42.021Z,98567.38
2023-03-01T16:22:30.866Z,98575.41
2023-03-01T16:25:20.377Z,98573.13
2023-03-01T16:28:11.069Z,98582.34
2023-03-01T16:31:02.357Z,98584.78
2023-03-01T16:33:52.481Z,98582.75
2023-03-01T16:36:40.466Z,98583.06
2023-03-01T16:39:28.299Z,98573.88
2023-03-01T16:42:17.386Z,98580.03
2023-03-01T16:45:18.405Z,98583.00
2023-03-01T16:48:13.721Z,98589.56
2023-03-01T16:51:02.784Z,98578.22
2023-03-01T16:53:51.002Z,98591.22
2023-03-01T16:56:40.629Z,98583.56
2023-03-01T16:59:31.112Z,98588.47
2023-03-01T17:02:20.826Z,98602.28
2023-03-01T17:05:11.987Z,98600.44
2023-03-01T17:08:00.794Z,98597.50
2023-03-01T17:10:48.971Z,98599.97
2023-03-01T17:13:37.456Z,98604.69
2023-03-01T17:16:28.826Z,98610.19
2023-03-01T17:19:18.691Z,98611.53
2023-03-01T17:22:07.828Z,98617.06
2023-03-01T17:24:55.991Z,98620.91
2023-03-01T17:27:43.784Z,98623.50
2023-03-01T17:30:31.769Z,98627.59
2023-03-01T17:33:20.621Z,98634.41
2023-03-01T17:36:08.712Z,98637.94
2023-03-01T17:39:00.115Z,98646.66
2023-03-01T17:41:48.193Z,98648.38
2023-03-01T17:44:36.367Z,98654.03
2023-03-01T17:47:24.461Z,98674.00
2023-03-01T17:50:16.504Z,98674.97
2023-03-01T17:53:10.091Z,98669.00
2023-03-01T17:56:04.166Z,98666.59
2023-03-01T17:58:52.020Z,98672.00
2023-03-01T18:01:43.428Z,98680.28
2023-03-01T18:04:32.318Z,98682.66
2023-03-01T18:07:20.697Z,98686.47
2023-03-01T18:10:08.997Z,98689.69
2023-03-01T18:12:58.185Z,98695.88
2023-03-01T18:15:45.803Z,98698.88
2023-03-01T18:18:33.627Z,98704.81
2023-03-01T18:21:23.549Z,98702.75
2023-03-01T18:24:11.464Z,98704.16
2023-03-01T18:26:59.340Z,98701.22
2023-03-01T18:29:48.811Z,98700.13
2023-03-01T18:32:39.571Z,98705.53
2023-03-01T18:35:31.524Z,98713.16
2023-03-01T18:38:19.531Z,98709.63
2023-03-01T18:41:07.398Z,98716.19
2023-03-01T18:43:57.440Z,98711.22
2023-03-01T18:46:47.329Z,98711.88
2023-03-01T18:49:35.365Z,98703.78
2023-03-01T18:52:23.407Z,98696.03
2023-03-01T18:55:12.109Z,98697.53
2023-03-01T18:57:59.832Z,98694.69
2023-03-01T19:00:48.117Z,98693.53
2023-03-01T19:03:38.906Z,98695.13
2023-03-01T19:06:31.321Z,98691.84
2023-03-01T19:09:19.287Z,98681.13
2023-03-01T19:12:07.553Z,98689.34
2023-03-01T19:14:55.557Z,98685.34
2023-03-01T19:17:43.710Z,98694.50
2023-03-01T19:20:33.173Z,98697.53
2023-03-01T19:23:20.865Z,98697.63
2023-03-01T19:26:11.687Z,98697.19
2023-03-01T19:28:59.887Z,98690.88
2023-03-01T19:31:47.838Z,98692.03
2023-03-01T19:34:38.289Z,98696.44
2023-03-01T19:37:28.113Z,98698.19
2023-03-01T19:40:19.415Z,98692.59
2023-03-01T19:43:10.631Z,98690.91
2023-03-01T19:46:00.178Z,98693.84
2023-03-01T19:48:50.136Z,98693.22
2023-03-01T19:51:39.326Z,98697.81
2023-03-01T19:54:28.772Z,98698.41
2023-03-01T19:57:17.773Z,98695.84
2023-03-01T20:00:06.738Z,98687.59
2023-03-01T20:02:56.579Z,98694.84
2023-03-01T20:05:46.569Z,98697.00
2023-03-01T20:08:34.619Z,98693.75
2023-03-01T20:11:24.252Z,98685.22
2023-03-01T20:14:13.139Z,98688.34
2023-03-01T20:17:01.157Z,98690.53
2023-03-01T20:19:49.202Z,98690.34
2023-03-01T20:22:37.251Z,98689.56
2023-03-01T20:25:25.133Z,98687.56
2023-03-01T20:28:14.468Z,98690.38
2023-03-01T20:31:07.707Z,98695.78
2023-03-01T20:33:57.747Z,98695.78
2023-03-01T20:36:45.968Z,98699.66
2023-03-01T20:39:33.620Z,98700.75
2023-03-01T20:42:21.773Z,98701.03
2023-03-01T20:45:12.148Z,98691.13
2023-03-01T20:48:00.295Z,98698.59
2023-03-01T20:50:48.538Z,98692.97
2023-03-01T20:53:36.600Z,98693.25
2023-03-01T20:56:26.796Z,98699.78
2023-03-01T20:59:15.869Z,98698.56
2023-03-01T21:02:05.261Z,98693.69
2023-03-01T21:04:53.051Z,98699.28
2023-03-01T21:07:40.911Z,98701.34
2023-03-01T21:10:28.847Z,98701.69
2023-03-01T21:13:17.063Z,98696.13
2023-03-01T21:16:08.028Z,98700.03
2023-03-01T21:18:57.447Z,98694.91
2023-03-01T21:21:45.462Z,98691.88
2023-03-01T21:24:34.054Z,98694.78
2023-03-01T21:27:21.817Z,98685.25
2023-03-01T21:30:11.292Z,98679.41
2023-03-01T21:32:59.414Z,98681.34
2023-03-01T21:35:49.063Z,98685.25
2023-03-01T21:38:38.545Z,98684.44
2023-03-01T21:41:28.054Z,98686.38
2023-03-01T21:44:16.104Z,98687.66
2023-03-01T21:47:04.228Z,98682.00
2023-03-01T21:49:52.077Z,98679.53
2023-03-01T21:52:41.347Z,98676.38
2023-03-01T21:55:29.314Z,98667.91
2023-03-01T21:58:17.380Z,98670.63
2023-03-01T22:01:10.263Z,98670.78
2023-03-01T22:03:59.856Z,98669.28
2023-03-01T22:06:48.221Z,98675.69
2023-03-01T22:09:38.952Z,98676.75
2023-03-01T22:12:26.696Z,98671.81
2023-03-01T22:15:14.634Z,98678.03
2023-03-01T22:18:02.262Z,98682.59
2023-03-01T22:20:50.294Z,98674.84
2023-03-01T22:23:39.944Z,98686.22
2023-03-01T22:26:31.678Z,98680.31
2023-03-01T22:29:24.780Z,98681.44
2023-03-01T22:32:12.792Z,98679.06
2023-03-01T22:35:00.885Z,98676.59
2023-03-01T22:37:48.726Z,98672.38
2023-03-01T22:40:38.534Z,98678.59
2023-03-01T22:43:30.016Z,98672.44
2023-03-01T22:46:20.053Z,98671.72
2023-03-01T22:49:08.287Z,98671.09
2023-03-01T22:51:56.386Z,98668.81
2023-03-01T22:54:44.414Z,98676.88
2023-03-01T22:57:32.223Z,98665.78
2023-03-01T23:00:22.553Z,98671.91
2023-03-01T23:03:10.663Z,98670.13
2023-03-01T23:05:58.468Z,98667.53
2023-03-01T23:08:49.694Z,98670.22
2023-03-01T23:11:37.471Z,98670.53
2023-03-01T23:14:26.088Z,98662.13
2023-03-01T23:17:15.504Z,98663.97
2023-03-01T23:20:07.042Z,98670.28
2023-03-01T23:23:01.558Z,98668.56
2023-03-01T23:25:56.712Z,98666.16
2023-03-01T23:28:45.250Z,98663.63
2023-03-01T23:31:32.966Z,98667.81
2023-03-01T23:34:22.424Z,98668.41
2023-03-01T23:37:10.971Z,98676.41
2023-03-01T23:39:58.699Z,98672.97
2023-03-01T23:42:47.090Z,98670.28
2023-03-01T23:45:37.763Z,98672.19
2023-03-01T23:48:25.604Z,98665.38
2023-03-01T23:51:15.967Z,98653.41
2023-03-01T23:54:05.438Z,98645.72
2023-03-01T23:56:53.472Z,98651.13
2023-03-01T23:59:41.947Z,98639.16
